Time;durP1;ratioP1;P1;durP2;ratioP2;P2;SDS_P1;SDS_P2;PMS_P1;PMS_P2;Temp;Humidity;BMP_temperature;BMP_pressure;BME280_temperature;BME280_humidity;BME280_pressure;Samples;Min_cycle;Max_cycle;Signal;HPM_P1;HPM_P2
2024/01/20 00:00:54;;;;;;;32.85;15.18;;;;;;;-2.15;87.01;100522.50;1726587;83;25648;-52
2024/01/20 00:03:22;;;;;;;30.85;14.83;;;;;;;-2.17;86.87;100529.06;1726699;83;25563;-50
2024/01/20 00:05:48;;;;;;;27.02;13.68;;;;;;;-2.20;86.79;100521.02;1726642;83;27878;-50
2024/01/20 00:08:14;;;;;;;38.13;15.83;;;;;;;-2.27;86.72;100509.16;1726544;83;25733;-51
2024/01/20 00:10:40;;;;;;;32.73;15.13;;;;;;;-2.27;86.65;100517.11;1726604;83;25565;-51
2024/01/20 00:13:08;;;;;;;35.95;14.98;;;;;;;-2.30;86.91;100518.06;1726583;83;25581;-50
2024/01/20 00:15:36;;;;;;;28.20;13.38;;;;;;;-2.32;86.93;100514.30;1726670;83;25631;-50
2024/01/20 00:18:07;;;;;;;31.40;14.90;;;;;;;-2.34;86.90;100513.71;1726612;83;28325;-54
2024/01/20 00:20:34;;;;;;;30.68;14.95;;;;;;;-2.35;86.90;100514.76;1723678;82;25792;-50
2024/01/20 00:23:00;;;;;;;29.57;13.70;;;;;;;-2.36;86.99;100520.27;1713575;83;25619;-51
2024/01/20 00:25:26;;;;;;;30.80;13.38;;;;;;;-2.39;86.94;100505.61;1713499;83;25618;-50
2024/01/20 00:27:52;;;;;;;33.15;15.45;;;;;;;-2.38;87.18;100509.06;1713474;83;25552;-51
2024/01/20 00:30:18;;;;;;;30.80;15.80;;;;;;;-2.37;87.15;100512.02;1713508;83;27310;-52
2024/01/20 00:32:44;;;;;;;37.08;16.62;;;;;;;-2.39;87.36;100507.45;1713355;83;27265;-51
2024/01/20 00:35:10;;;;;;;33.95;15.03;;;;;;;-2.37;87.51;100513.34;1713503;83;25389;-50
2024/01/20 00:37:38;;;;;;;38.30;16.90;;;;;;;-2.36;87.55;100508.34;1713457;83;25724;-50
2024/01/20 00:40:12;;;;;;;29.80;14.87;;;;;;;-2.35;87.43;100511.28;1713564;83;25388;-51
2024/01/20 00:42:39;;;;;;;29.23;16.23;;;;;;;-2.34;87.53;100506.28;1713502;83;27331;-51
2024/01/20 00:45:10;;;;;;;29.07;14.30;;;;;;;-2.36;87.69;100501.73;1713390;83;25465;-54
2024/01/20 00:47:38;;;;;;;34.35;15.23;;;;;;;-2.34;87.57;100499.66;1713502;83;25576;-50
2024/01/20 00:50:10;;;;;;;32.42;16.02;;;;;;;-2.33;87.90;100501.30;1713472;83;25624;-50
2024/01/20 00:52:38;;;;;;;31.45;15.38;;;;;;;-2.33;87.86;100498.13;1713553;83;25605;-53
2024/01/20 00:55:10;;;;;;;30.90;15.90;;;;;;;-2.30;88.15;100497.69;1713485;83;27279;-51
2024/01/20 00:57:38;;;;;;;35.85;16.30;;;;;;;-2.29;88.24;100492.67;1713381;83;25388;-51
2024/01/20 01:00:11;;;;;;;36.48;16.97;;;;;;;-2.29;88.49;100495.84;1713589;83;25421;-53
2024/01/20 01:02:42;;;;;;;36.77;15.13;;;;;;;-2.28;88.85;100496.15;1713490;83;26177;-51
2024/01/20 01:05:10;;;;;;;32.55;16.05;;;;;;;-2.26;88.86;100495.41;1713498;83;25434;-51
2024/01/20 01:07:38;;;;;;;31.57;16.07;;;;;;;-2.27;89.48;100497.23;1713497;83;27702;-51
2024/01/20 01:10:10;;;;;;;36.80;17.02;;;;;;;-2.28;89.32;100484.23;1713391;83;25413;-53
2024/01/20 01:12:36;;;;;;;39.50;16.02;;;;;;;-2.28;89.65;100490.33;1713549;83;25459;-50
2024/01/20 01:15:07;;;;;;;42.98;17.05;;;;;;;-2.27;89.65;100484.50;1713470;83;25718;-50
2024/01/20 01:17:33;;;;;;;41.02;17.65;;;;;;;-2.26;90.01;100476.86;1713499;83;25462;-52
2024/01/20 01:20:00;;;;;;;36.93;17.62;;;;;;;-2.25;90.06;100474.48;1713397;83;27282;-50
2024/01/20 01:22:28;;;;;;;33.33;16.95;;;;;;;-2.24;90.42;100473.47;1724607;82;25612;-52
2024/01/20 01:24:54;;;;;;;37.33;17.75;;;;;;;-2.24;90.45;100468.17;1726551;83;25602;-51
2024/01/20 01:27:20;;;;;;;37.42;18.20;;;;;;;-2.22;90.64;100461.33;1726497;83;25631;-51
2024/01/20 01:29:46;;;;;;;40.60;17.90;;;;;;;-2.21;90.75;100464.25;1726595;83;25607;-50
2024/01/20 01:32:12;;;;;;;37.50;17.62;;;;;;;-2.20;90.59;100464.56;1726545;83;27303;-50
2024/01/20 01:34:39;;;;;;;38.73;19.57;;;;;;;-2.20;90.81;100468.54;1726405;83;27265;-51
2024/01/20 01:37:05;;;;;;;36.85;17.87;;;;;;;-2.18;91.01;100469.12;1726586;83;25464;-51
2024/01/20 01:39:31;;;;;;;37.93;18.30;;;;;;;-2.15;91.52;100472.66;1726495;83;25668;-54
2024/01/20 01:41:57;;;;;;;42.25;19.07;;;;;;;-2.14;91.60;100474.30;1726610;83;25637;-50
2024/01/20 01:44:23;;;;;;;43.23;20.00;;;;;;;-2.13;91.76;100483.36;1726528;83;27303;-52
2024/01/20 01:46:50;;;;;;;37.40;18.45;;;;;;;-2.11;91.93;100493.71;1726579;83;25441;-54
2024/01/20 01:49:21;;;;;;;35.08;17.57;;;;;;;-2.08;92.43;100499.91;1726602;83;25631;-51
2024/01/20 01:51:51;;;;;;;35.23;18.48;;;;;;;-2.07;92.34;100487.76;1726540;83;27832;-52
2024/01/20 01:54:22;;;;;;;39.53;18.67;;;;;;;-2.03;92.23;100492.10;1726671;83;25533;-54
2024/01/20 01:56:54;;;;;;;44.83;19.87;;;;;;;-2.01;92.50;100490.06;1726505;83;27316;-51
2024/01/20 01:59:24;;;;;;;34.40;17.40;;;;;;;-1.99;92.46;100488.00;1726484;83;25740;-51
2024/01/20 02:01:50;;;;;;;36.98;18.90;;;;;;;-1.97;92.63;100482.47;1726550;83;25646;-50
2024/01/20 02:04:16;;;;;;;45.55;18.40;;;;;;;-1.94;92.84;100483.33;1726546;83;25634;-51
2024/01/20 02:06:43;;;;;;;42.62;20.25;;;;;;;-1.95;93.02;100485.19;1726548;83;25525;-51
2024/01/20 02:09:13;;;;;;;39.27;19.15;;;;;;;-1.94;93.40;100486.81;1726487;83;27385;-51
2024/01/20 02:11:43;;;;;;;43.20;18.73;;;;;;;-1.92;93.57;100488.73;1726474;83;25545;-50
2024/01/20 02:14:13;;;;;;;44.27;19.15;;;;;;;-1.92;93.59;100499.33;1726580;83;25363;-50
2024/01/20 02:16:41;;;;;;;39.63;18.70;;;;;;;-1.90;93.83;100488.51;1726497;83;25608;-51
2024/01/20 02:19:09;;;;;;;34.03;17.70;;;;;;;-1.90;93.88;100485.33;1726656;83;25683;-51
2024/01/20 02:21:36;;;;;;;39.80;19.35;;;;;;;-1.89;94.24;100486.97;1726424;81;27913;-51
2024/01/20 02:24:09;;;;;;;37.55;19.45;;;;;;;-1.86;94.05;100487.55;1726591;83;25580;-51
2024/01/20 02:26:37;;;;;;;40.17;20.70;;;;;;;-1.87;94.46;100484.09;1726651;83;25470;-51
2024/01/20 02:29:03;;;;;;;44.88;23.60;;;;;;;-1.85;94.28;100479.90;1726757;83;25808;-53
2024/01/20 02:31:30;;;;;;;43.52;19.57;;;;;;;-1.82;94.50;100481.59;1726696;83;25378;-54
2024/01/20 02:33:56;;;;;;;39.53;18.62;;;;;;;-1.79;94.26;100481.12;1726678;83;27332;-54
2024/01/20 02:36:26;;;;;;;39.00;16.57;;;;;;;-1.77;94.42;100475.59;1726588;83;25426;-53
2024/01/20 02:38:57;;;;;;;35.08;16.73;;;;;;;-1.75;94.14;100466.92;1726719;83;25555;-51
2024/01/20 02:41:23;;;;;;;31.90;17.25;;;;;;;-1.74;94.26;100461.40;1726688;83;26423;-50
2024/01/20 02:43:49;;;;;;;40.95;16.97;;;;;;;-1.68;94.16;100465.52;1726715;81;25393;-50
2024/01/20 02:46:15;;;;;;;40.05;17.20;;;;;;;-1.65;94.29;100458.41;1726684;82;27439;-50
2024/01/20 02:48:41;;;;;;;37.80;18.42;;;;;;;-1.63;94.02;100451.87;1726567;83;25598;-51
2024/01/20 02:51:07;;;;;;;40.23;19.85;;;;;;;-1.58;93.98;100452.53;1726626;83;25563;-50
2024/01/20 02:53:38;;;;;;;37.00;19.45;;;;;;;-1.56;93.72;100453.11;1726696;83;25606;-50
2024/01/20 02:56:09;;;;;;;44.38;20.27;;;;;;;-1.54;93.84;100454.48;1726842;83;25632;-54
2024/01/20 02:58:35;;;;;;;39.65;18.62;;;;;;;-1.52;93.88;100457.72;1726761;83;27400;-51
2024/01/20 03:01:02;;;;;;;37.87;18.60;;;;;;;-1.51;93.87;100444.76;1726652;83;32234;-52
2024/01/20 03:03:29;;;;;;;41.18;18.98;;;;;;;-1.48;93.66;100448.83;1726664;83;25554;-51
2024/01/20 03:05:57;;;;;;;42.45;18.00;;;;;;;-1.44;93.56;100449.18;1726540;80;25604;-51
2024/01/20 03:08:23;;;;;;;37.30;18.90;;;;;;;-1.44;93.42;100458.47;1726693;83;25608;-49
2024/01/20 03:10:49;;;;;;;44.73;19.32;;;;;;;-1.41;93.47;100468.63;1726646;83;27317;-53
2024/01/20 03:13:15;;;;;;;39.58;18.52;;;;;;;-1.39;93.36;100467.88;1726591;83;25595;-53
2024/01/20 03:15:42;;;;;;;39.53;19.60;;;;;;;-1.36;93.24;100478.05;1726663;83;25446;-53
2024/01/20 03:18:08;;;;;;;38.28;18.25;;;;;;;-1.34;93.14;100470.67;1726583;83;25945;-50
2024/01/20 03:20:34;;;;;;;34.75;18.15;;;;;;;-1.30;92.99;100481.64;1726636;82;25523;-52
2024/01/20 03:23:01;;;;;;;34.38;17.35;;;;;;;-1.29;92.83;100471.30;1739796;82;27327;-50
2024/01/20 03:25:28;;;;;;;41.42;18.02;;;;;;;-1.27;92.68;100470.58;1745118;82;25462;-51
2024/01/20 03:27:54;;;;;;;43.52;18.52;;;;;;;-1.25;92.60;100477.27;1747616;82;25519;-50
2024/01/20 03:30:21;;;;;;;32.48;16.42;;;;;;;-1.22;92.48;100487.97;1747610;81;25634;-50
2024/01/20 03:32:52;;;;;;;32.05;16.90;;;;;;;-1.20;92.36;100484.03;1747709;81;25444;-51
2024/01/20 03:35:18;;;;;;;35.58;16.73;;;;;;;-1.18;92.26;100491.78;1747678;81;27322;-50
2024/01/20 03:37:45;;;;;;;36.63;16.67;;;;;;;-1.17;92.06;100484.92;1747634;82;25785;-50
2024/01/20 03:40:12;;;;;;;31.40;16.07;;;;;;;-1.16;92.06;100494.52;1747713;82;25569;-52
2024/01/20 03:42:38;;;;;;;38.08;16.80;;;;;;;-1.15;91.92;100502.75;1747654;82;26024;-51
2024/01/20 03:45:09;;;;;;;33.38;16.48;;;;;;;-1.14;92.16;100491.11;1747656;82;25522;-51
2024/01/20 03:47:35;;;;;;;33.28;15.00;;;;;;;-1.15;92.10;100499.30;1747694;82;27405;-50
2024/01/20 03:50:09;;;;;;;33.18;16.05;;;;;;;-1.16;92.17;100497.66;1747590;81;25542;-54
2024/01/20 03:52:37;;;;;;;29.77;15.32;;;;;;;-1.18;92.33;100496.56;1747691;82;25573;-51
2024/01/20 03:55:08;;;;;;;29.70;14.80;;;;;;;-1.17;92.22;100496.06;1747574;81;25678;-51
2024/01/20 03:57:34;;;;;;;38.23;16.27;;;;;;;-1.18;92.23;100499.74;1747667;82;25392;-51
2024/01/20 04:00:00;;;;;;;35.55;16.97;;;;;;;-1.16;92.20;100500.31;1747568;82;27365;-51
2024/01/20 04:02:27;;;;;;;29.18;16.90;;;;;;;-1.17;92.10;100485.45;1747518;82;25705;-54
2024/01/20 04:04:54;;;;;;;31.10;15.78;;;;;;;-1.17;92.08;100478.28;1747687;82;25532;-51
2024/01/20 04:07:20;;;;;;;37.63;16.17;;;;;;;-1.16;91.98;100463.16;1747622;81;25624;-53
2024/01/20 04:09:46;;;;;;;30.08;14.95;;;;;;;-1.17;92.09;100465.01;1747690;81;25698;-54
2024/01/20 04:12:12;;;;;;;26.57;14.30;;;;;;;-1.16;92.01;100466.64;1747641;82;27354;-54
2024/01/20 04:14:38;;;;;;;33.35;15.18;;;;;;;-1.16;92.23;100468.46;1747515;81;25452;-52
2024/01/20 04:17:04;;;;;;;30.25;14.93;;;;;;;-1.16;92.02;100474.60;1747590;81;25546;-50
2024/01/20 04:19:30;;;;;;;28.62;14.38;;;;;;;-1.15;92.06;100471.42;1747581;81;26166;-52
2024/01/20 04:21:57;;;;;;;33.38;15.25;;;;;;;-1.17;92.14;100468.98;1737216;81;25377;-54
2024/01/20 04:24:23;;;;;;;30.90;14.83;;;;;;;-1.16;92.21;100463.16;1711672;83;29602;-53
2024/01/20 04:26:49;;;;;;;33.83;14.30;;;;;;;-1.17;92.21;100468.98;1713464;83;25579;-57
2024/01/20 04:29:15;;;;;;;31.48;14.60;;;;;;;-1.17;92.14;100476.16;1713546;83;25596;-51
2024/01/20 04:31:41;;;;;;;27.30;13.18;;;;;;;-1.20;92.22;100457.49;1713549;83;25627;-52
2024/01/20 04:34:07;;;;;;;28.77;14.00;;;;;;;-1.17;92.16;100478.28;1713470;83;25500;-51
2024/01/20 04:36:33;;;;;;;26.65;13.48;;;;;;;-1.18;92.22;100460.72;1713478;83;27330;-53
2024/01/20 04:39:00;;;;;;;35.23;15.10;;;;;;;-1.18;92.36;100464.70;1713351;83;25529;-53
2024/01/20 04:41:27;;;;;;;28.25;12.95;;;;;;;-1.18;93.09;100467.88;1713537;83;25568;-52
2024/01/20 04:43:53;;;;;;;31.20;14.33;;;;;;;-1.19;93.00;100467.58;1713498;83;25756;-52
2024/01/20 04:46:19;;;;;;;37.23;15.28;;;;;;;-1.22;93.14;100483.98;1713450;83;25496;-51
2024/01/20 04:48:45;;;;;;;26.25;13.32;;;;;;;-1.24;93.51;100474.92;1713445;83;27621;-51
2024/01/20 04:51:13;;;;;;;30.02;14.13;;;;;;;-1.26;93.88;100480.98;1713273;83;25528;-50
2024/01/20 04:53:39;;;;;;;28.57;14.20;;;;;;;-1.30;93.81;100475.01;1713411;83;25419;-50
2024/01/20 04:56:07;;;;;;;37.70;14.50;;;;;;;-1.31;94.44;100478.19;1713534;83;25765;-54
2024/01/20 04:58:34;;;;;;;26.40;13.65;;;;;;;-1.35;94.86;100463.20;1713681;83;25398;-52
2024/01/20 05:01:00;;;;;;;28.40;13.85;;;;;;;-1.37;94.69;100471.92;1713487;83;27385;-52
2024/01/20 05:03:26;;;;;;;27.20;13.93;;;;;;;-1.38;95.02;100468.16;1713416;83;25554;-50
2024/01/20 05:05:56;;;;;;;24.40;13.18;;;;;;;-1.42;95.43;100458.52;1713669;83;25584;-51
2024/01/20 05:08:24;;;;;;;23.98;13.53;;;;;;;-1.43;95.45;100460.06;1713430;83;26326;-51
2024/01/20 05:10:50;;;;;;;33.35;14.85;;;;;;;-1.45;95.74;100456.30;1713469;83;25446;-50
2024/01/20 05:13:16;;;;;;;26.52;13.85;;;;;;;-1.49;96.71;100467.61;1713474;83;27933;-53
2024/01/20 05:15:42;;;;;;;27.85;13.72;;;;;;;-1.52;96.10;100470.98;1713438;83;25439;-50
2024/01/20 05:18:08;;;;;;;31.60;14.35;;;;;;;-1.53;96.26;100464.61;1713566;83;25607;-50
2024/01/20 05:20:34;;;;;;;28.60;14.45;;;;;;;-1.54;96.42;100461.65;1713392;83;25640;-50
2024/01/20 05:23:05;;;;;;;31.65;14.87;;;;;;;-1.54;97.09;100474.39;1714232;83;25615;-50
2024/01/20 05:25:31;;;;;;;31.68;15.20;;;;;;;-1.55;97.00;100471.46;1726637;83;27703;-51
2024/01/20 05:27:57;;;;;;;27.40;13.65;;;;;;;-1.57;96.91;100474.83;1726478;82;25432;-50
2024/01/20 05:30:24;;;;;;;30.43;13.32;;;;;;;-1.60;97.47;100472.65;1726582;83;25716;-50
2024/01/20 05:32:50;;;;;;;26.80;14.47;;;;;;;-1.61;97.19;100485.61;1726568;83;27906;-51
2024/01/20 05:35:16;;;;;;;31.52;13.62;;;;;;;-1.61;97.27;100477.65;1726606;83;25413;-50
2024/01/20 05:37:42;;;;;;;30.17;12.98;;;;;;;-1.62;97.89;100489.80;1726543;83;27377;-50
2024/01/20 05:40:14;;;;;;;26.62;13.48;;;;;;;-1.65;98.12;100487.09;1726445;83;25560;-50
2024/01/20 05:42:43;;;;;;;27.48;12.73;;;;;;;-1.65;98.25;100487.59;1726626;83;25524;-52
2024/01/20 05:45:15;;;;;;;27.40;12.80;;;;;;;-1.67;98.24;100494.45;1726639;80;32433;-53
2024/01/20 05:47:41;;;;;;;25.85;13.00;;;;;;;-1.68;98.43;100488.06;1726625;83;25439;-52
2024/01/20 05:50:10;;;;;;;35.45;13.40;;;;;;;-1.71;98.82;100486.12;1726542;83;27329;-49
2024/01/20 05:52:39;;;;;;;26.73;13.28;;;;;;;-1.72;98.54;100487.17;1726561;80;25430;-50
2024/01/20 05:55:08;;;;;;;23.20;12.63;;;;;;;-1.73;98.95;100496.16;1726707;83;34673;-50
2024/01/20 05:57:35;;;;;;;26.17;13.55;;;;;;;-1.75;99.30;100494.25;1726620;83;25629;-50
2024/01/20 06:00:01;;;;;;;26.20;13.05;;;;;;;-1.75;99.00;100490.27;1726689;83;25468;-53
2024/01/20 06:02:31;;;;;;;30.17;13.30;;;;;;;-1.75;99.26;100497.42;1726656;83;28147;-50
2024/01/20 06:04:57;;;;;;;27.25;13.62;;;;;;;-1.76;99.51;100482.53;1726602;83;25594;-49
2024/01/20 06:07:23;;;;;;;25.55;12.60;;;;;;;-1.77;99.52;100483.55;1726728;82;25393;-53
2024/01/20 06:09:49;;;;;;;24.85;13.25;;;;;;;-1.77;99.60;100496.81;1726680;83;25664;-51
2024/01/20 06:12:15;;;;;;;27.13;14.18;;;;;;;-1.78;99.77;100496.01;1726675;83;25449;-49
2024/01/20 06:14:41;;;;;;;27.93;13.68;;;;;;;-1.77;100.00;100502.11;1726679;83;27030;-50
2024/01/20 06:17:08;;;;;;;32.35;14.60;;;;;;;-1.79;100.00;100494.91;1726579;83;25540;-50
2024/01/20 06:19:37;;;;;;;25.50;13.93;;;;;;;-1.78;100.00;100505.81;1726589;83;25391;-52
2024/01/20 06:22:04;;;;;;;30.88;15.15;;;;;;;-1.79;100.00;100499.68;1727262;82;25687;-53
2024/01/20 06:24:32;;;;;;;31.15;14.47;;;;;;;-1.79;100.00;100522.22;1740567;82;25413;-50
2024/01/20 06:26:58;;;;;;;29.40;15.20;;;;;;;-1.77;100.00;100544.55;1739820;81;27278;-51
2024/01/20 06:29:24;;;;;;;27.77;15.05;;;;;;;-1.77;100.00;100513.55;1739778;82;25779;-50
2024/01/20 06:31:50;;;;;;;28.83;15.25;;;;;;;-1.76;99.96;100506.40;1739861;82;25580;-49
2024/01/20 06:34:18;;;;;;;33.73;15.35;;;;;;;-1.75;99.98;100515.46;1739675;81;25666;-49
2024/01/20 06:36:44;;;;;;;29.72;14.50;;;;;;;-1.74;99.79;100514.94;1739800;81;25562;-49
2024/01/20 06:39:10;;;;;;;29.30;15.15;;;;;;;-1.74;99.84;100518.91;1739665;82;29605;-51
2024/01/20 06:41:37;;;;;;;30.23;14.87;;;;;;;-1.73;99.42;100523.20;1739629;81;25582;-50
2024/01/20 06:44:08;;;;;;;28.65;14.93;;;;;;;-1.72;99.53;100517.67;1739787;81;25627;-50
2024/01/20 06:46:34;;;;;;;29.80;14.47;;;;;;;-1.70;99.16;100526.22;1739788;81;25562;-50
2024/01/20 06:49:00;;;;;;;30.45;16.60;;;;;;;-1.70;99.02;100537.35;1739720;81;25658;-49
2024/01/20 06:51:27;;;;;;;32.38;15.10;;;;;;;-1.71;98.88;100529.89;1739732;81;27336;-49
2024/01/20 06:53:57;;;;;;;27.37;14.23;;;;;;;-1.67;98.87;100536.08;1739608;81;25403;-52
2024/01/20 06:56:22;;;;;;;27.48;14.38;;;;;;;-1.71;98.71;100531.73;1738816;82;25460;-49
2024/01/20 06:58:48;;;;;;;29.35;15.65;;;;;;;-1.69;98.58;100540.28;1739617;82;25680;-49
2024/01/20 07:01:16;;;;;;;25.80;14.68;;;;;;;-1.66;98.26;100537.19;1739770;81;25469;-50
2024/01/20 07:03:42;;;;;;;25.92;14.13;;;;;;;-1.68;98.14;100545.89;1739831;81;27402;-49
2024/01/20 07:06:08;;;;;;;25.20;13.80;;;;;;;-1.64;98.06;100526.36;1739582;82;25703;-50
2024/01/20 07:08:36;;;;;;;27.10;14.18;;;;;;;-1.66;97.90;100538.52;1739696;82;25622;-50
2024/01/20 07:11:02;;;;;;;31.48;14.25;;;;;;;-1.65;97.37;100526.89;1739617;81;25699;-49
2024/01/20 07:13:28;;;;;;;26.23;14.55;;;;;;;-1.66;97.36;100523.12;1720316;82;25688;-50
2024/01/20 07:15:54;;;;;;;31.37;13.95;;;;;;;-1.63;97.31;100534.09;1739741;82;27339;-49
2024/01/20 07:18:21;;;;;;;30.57;13.08;;;;;;;-1.63;97.25;100539.94;1739648;81;25441;-53
2024/01/20 07:20:47;;;;;;;26.80;14.35;;;;;;;-1.62;96.95;100543.66;1739724;82;25673;-49
2024/01/20 07:23:13;;;;;;;27.67;14.80;;;;;;;-1.61;96.87;100533.36;1734954;82;25627;-50
2024/01/20 07:25:39;;;;;;;24.52;14.13;;;;;;;-1.59;96.76;100529.16;1726717;83;25608;-50
2024/01/20 07:28:06;;;;;;;30.00;14.15;;;;;;;-1.59;96.72;100529.95;1726589;83;29485;-51
2024/01/20 07:30:32;;;;;;;28.17;14.45;;;;;;;-1.61;96.62;100533.88;1726511;83;25386;-52
2024/01/20 07:32:58;;;;;;;26.87;14.30;;;;;;;-1.57;96.48;100539.02;1726617;82;26826;-50
2024/01/20 07:35:26;;;;;;;28.20;14.15;;;;;;;-1.55;96.39;100548.39;1726643;83;25683;-54
2024/01/20 07:37:52;;;;;;;27.60;13.43;;;;;;;-1.55;96.32;100536.45;1726655;83;25517;-50
2024/01/20 07:40:18;;;;;;;30.72;15.00;;;;;;;-1.52;96.23;100561.72;1726669;83;27325;-49
2024/01/20 07:42:46;;;;;;;31.93;13.90;;;;;;;-1.54;96.15;100560.61;1726516;83;25556;-50
2024/01/20 07:45:13;;;;;;;27.50;14.15;;;;;;;-1.50;96.09;100542.40;1726633;83;25575;-50
2024/01/20 07:47:39;;;;;;;29.12;14.07;;;;;;;-1.49;96.00;100551.19;1726603;83;25735;-54
2024/01/20 07:50:10;;;;;;;31.02;15.03;;;;;;;-1.48;95.96;100535.55;1726671;83;25404;-50
2024/01/20 07:52:38;;;;;;;27.13;12.82;;;;;;;-1.45;96.07;100557.66;1726682;83;26896;-51
2024/01/20 07:55:09;;;;;;;25.95;14.68;;;;;;;-1.43;95.90;100546.30;1726601;83;25558;-51
2024/01/20 07:57:35;;;;;;;28.85;13.95;;;;;;;-1.45;95.96;100535.91;1726677;83;25457;-50
2024/01/20 08:00:08;;;;;;;26.52;13.15;;;;;;;-1.42;95.95;100553.24;1726600;83;26180;-52
2024/01/20 08:02:39;;;;;;;28.20;14.33;;;;;;;-1.41;95.89;100553.55;1726731;83;25578;-52
2024/01/20 08:05:10;;;;;;;30.68;13.65;;;;;;;-1.39;95.77;100556.26;1726656;83;28153;-51
2024/01/20 08:07:36;;;;;;;27.05;13.58;;;;;;;-1.37;95.86;100581.25;1726593;83;25440;-50
2024/01/20 08:10:08;;;;;;;30.00;14.95;;;;;;;-1.36;95.66;100582.36;1726598;83;25445;-50
2024/01/20 08:12:34;;;;;;;33.08;15.00;;;;;;;-1.36;95.55;100573.59;1726595;83;25686;-51
2024/01/20 08:15:00;;;;;;;27.65;14.65;;;;;;;-1.33;95.54;100586.39;1726585;83;25590;-50
2024/01/20 08:17:26;;;;;;;27.60;14.75;;;;;;;-1.36;95.34;100578.38;1726559;83;27326;-50
2024/01/20 08:19:52;;;;;;;25.90;14.25;;;;;;;-1.33;95.09;100593.86;1726503;83;25579;-50
2024/01/20 08:22:19;;;;;;;30.48;14.43;;;;;;;-1.31;95.14;100585.67;1726609;83;25582;-50
2024/01/20 08:24:46;;;;;;;28.75;14.35;;;;;;;-1.29;95.06;100593.39;1737792;82;26174;-50
2024/01/20 08:27:12;;;;;;;30.17;15.32;;;;;;;-1.27;94.95;100588.17;1739650;81;25202;-52
2024/01/20 08:29:39;;;;;;;30.08;14.10;;;;;;;-1.27;94.85;100590.82;1739671;81;27214;-50
2024/01/20 08:32:08;;;;;;;27.93;13.75;;;;;;;-1.26;94.87;100589.80;1739427;81;25380;-49
2024/01/20 08:34:34;;;;;;;19.92;10.70;;;;;;;-1.24;94.91;100594.36;1739804;82;25578;-50
2024/01/20 08:37:00;;;;;;;27.60;14.23;;;;;;;-1.20;94.78;100593.40;1739597;82;27792;-50
2024/01/20 08:39:26;;;;;;;25.02;13.62;;;;;;;-1.20;94.62;100593.40;1739669;82;25465;-52
2024/01/20 08:41:55;;;;;;;29.50;13.65;;;;;;;-1.20;94.55;100585.44;1739687;82;27323;-51
2024/01/20 08:44:22;;;;;;;31.33;14.60;;;;;;;-1.19;94.49;100591.85;1739665;82;25698;-51
2024/01/20 08:46:48;;;;;;;27.77;14.20;;;;;;;-1.18;94.43;100597.44;1739775;82;25646;-50
2024/01/20 08:49:16;;;;;;;26.37;14.03;;;;;;;-1.17;94.24;100608.88;1739789;82;25621;-51
2024/01/20 08:51:44;;;;;;;30.95;14.45;;;;;;;-1.17;94.15;100595.09;1739726;81;25551;-50
2024/01/20 08:54:10;;;;;;;33.02;14.53;;;;;;;-1.14;94.21;100603.13;1739653;81;27241;-51
2024/01/20 08:56:38;;;;;;;27.82;14.30;;;;;;;-1.14;94.06;100613.75;1739651;82;25572;-50
2024/01/20 08:59:04;;;;;;;28.55;15.10;;;;;;;-1.17;93.98;100599.06;1739589;81;25554;-53
2024/01/20 09:01:30;;;;;;;30.25;15.43;;;;;;;-1.15;93.97;100609.47;1739627;82;25996;-50
2024/01/20 09:03:56;;;;;;;29.55;16.23;;;;;;;-1.13;93.93;100604.73;1739733;82;25445;-51
2024/01/20 09:06:22;;;;;;;33.92;15.45;;;;;;;-1.13;93.94;100602.08;1739664;82;27687;-50
2024/01/20 09:08:49;;;;;;;31.50;14.85;;;;;;;-1.10;94.04;100608.28;1739574;82;25442;-50
2024/01/20 09:11:15;;;;;;;27.05;13.70;;;;;;;-1.07;94.07;100612.31;1739616;82;25617;-50
2024/01/20 09:13:41;;;;;;;29.87;14.03;;;;;;;-1.06;93.88;100606.78;1739631;81;25473;-51
2024/01/20 09:16:09;;;;;;;27.17;13.98;;;;;;;-1.06;93.84;100595.36;1739699;82;25385;-49
2024/01/20 09:18:35;;;;;;;26.77;15.08;;;;;;;-1.05;93.77;100613.73;1739554;82;27335;-50
2024/01/20 09:21:01;;;;;;;31.75;14.63;;;;;;;-1.05;93.69;100602.31;1739522;81;25581;-50
2024/01/20 09:23:27;;;;;;;26.20;13.83;;;;;;;-1.02;93.63;100598.69;1737195;81;25847;-50
2024/01/20 09:25:54;;;;;;;28.77;14.07;;;;;;;-1.01;93.53;100598.16;1724317;83;25979;-50
2024/01/20 09:28:20;;;;;;;31.25;14.23;;;;;;;-0.99;93.54;100594.75;1724318;83;25416;-50
2024/01/20 09:30:46;;;;;;;26.65;15.08;;;;;;;-0.97;93.42;100600.15;1724311;83;27218;-49
2024/01/20 09:33:12;;;;;;;26.90;13.95;;;;;;;-0.97;93.38;100589.52;1724172;83;25559;-49
2024/01/20 09:35:41;;;;;;;26.48;14.58;;;;;;;-0.96;93.25;100595.11;1724456;83;25617;-50
2024/01/20 09:38:11;;;;;;;27.15;14.47;;;;;;;-0.96;93.13;100594.31;1724304;83;25639;-51
2024/01/20 09:40:37;;;;;;;29.25;14.18;;;;;;;-0.95;93.19;100607.36;1724531;83;25409;-49
2024/01/20 09:43:07;;;;;;;31.37;14.93;;;;;;;-0.93;93.17;100593.06;1724385;83;27318;-53
2024/01/20 09:45:40;;;;;;;26.80;14.70;;;;;;;-0.91;93.21;100586.48;1724273;83;25464;-49
2024/01/20 09:48:09;;;;;;;32.38;16.52;;;;;;;-0.91;93.02;100585.15;1724472;83;25464;-50
2024/01/20 09:50:35;;;;;;;30.77;14.78;;;;;;;-0.88;93.04;100583.91;1724498;83;25696;-50
2024/01/20 09:53:19;;;;;;;33.60;15.53;;;;;;;-0.87;92.94;100578.86;1724450;83;25469;-51
2024/01/20 09:55:47;;;;;;;25.30;13.88;;;;;;;-0.86;92.91;100572.53;1724515;83;28299;-52
2024/01/20 09:58:19;;;;;;;32.53;16.05;;;;;;;-0.84;92.79;100566.47;1724275;83;25455;-49
2024/01/20 10:00:49;;;;;;;22.85;14.15;;;;;;;-0.83;92.70;100580.85;1724435;83;25479;-50
2024/01/20 10:03:20;;;;;;;28.85;14.43;;;;;;;-0.84;92.76;100565.94;1724367;83;26324;-49
2024/01/20 10:05:46;;;;;;;24.95;14.15;;;;;;;-0.78;92.68;100570.89;1724401;83;25631;-53
2024/01/20 10:08:12;;;;;;;29.45;14.98;;;;;;;-0.78;92.72;100559.73;1724292;83;27372;-50
2024/01/20 10:10:40;;;;;;;33.60;15.32;;;;;;;-0.72;92.96;100574.47;1724273;83;25484;-50
2024/01/20 10:13:07;;;;;;;29.85;15.03;;;;;;;-0.71;91.97;100584.88;1724426;81;25611;-49
2024/01/20 10:15:33;;;;;;;30.55;15.93;;;;;;;-0.73;92.04;100583.47;1724293;83;27752;-50
2024/01/20 10:18:10;;;;;;;29.92;15.93;;;;;;;-0.70;91.99;100577.70;1724405;83;25469;-51
2024/01/20 10:20:39;;;;;;;26.15;14.87;;;;;;;-0.72;91.76;100583.24;1724291;83;27486;-52
2024/01/20 10:23:08;;;;;;;26.90;14.93;;;;;;;-0.68;92.05;100578.28;1724320;83;25625;-50
2024/01/20 10:25:37;;;;;;;26.02;14.85;;;;;;;-0.65;92.24;100588.46;1714861;82;25444;-49
2024/01/20 10:28:08;;;;;;;33.33;15.83;;;;;;;-0.64;92.16;100586.91;1713628;83;26169;-50
2024/01/20 10:30:38;;;;;;;;;;;;;;;-0.61;91.82;100584.33;1716122;83;25442;-50
2024/01/20 10:33:09;;;;;;;32.42;14.98;;;;;;;-0.61;91.58;100579.81;1713675;83;27355;-51
2024/01/20 10:35:36;;;;;;;30.23;14.73;;;;;;;-0.63;91.61;100579.73;1713441;83;25749;-50
2024/01/20 10:38:08;;;;;;;29.02;15.05;;;;;;;-0.58;91.27;100586.51;1713566;83;25433;-49
2024/01/20 10:40:37;;;;;;;25.05;15.08;;;;;;;-0.61;91.56;100571.05;1713251;83;27897;-51
2024/01/20 10:43:09;;;;;;;25.15;15.03;;;;;;;-0.55;90.60;100583.41;1713505;83;25568;-49
2024/01/20 10:45:41;;;;;;;30.80;16.80;;;;;;;-0.51;90.78;100573.13;1712342;83;26991;-50
2024/01/20 10:48:14;;;;;;;27.93;16.00;;;;;;;-0.52;90.53;100571.52;1712465;83;25584;-51
2024/01/20 10:50:46;;;;;;;30.60;15.55;;;;;;;-0.47;90.22;100570.31;1713376;83;25463;-49
2024/01/20 10:53:14;;;;;;;30.17;15.35;;;;;;;-0.51;90.10;100566.48;1713494;83;27782;-50
2024/01/20 10:55:42;;;;;;;30.88;15.50;;;;;;;-0.46;90.15;100578.06;1713630;83;25579;-49
2024/01/20 10:58:13;;;;;;;26.62;14.83;;;;;;;-0.44;89.87;100576.52;1713527;83;27401;-50
2024/01/20 11:00:43;;;;;;;32.98;16.40;;;;;;;-0.44;89.60;100593.78;1713444;83;25495;-53
2024/01/20 11:03:13;;;;;;;32.67;15.85;;;;;;;-0.42;89.21;100575.76;1713590;83;25563;-50
2024/01/20 11:05:48;;;;;;;29.45;16.25;;;;;;;-0.42;89.36;100581.08;1713596;83;26807;-50
2024/01/20 11:08:24;;;;;;;26.87;14.20;;;;;;;-0.46;88.79;100566.61;1713691;83;25461;-49
2024/01/20 11:10:55;;;;;;;31.05;15.20;;;;;;;-0.44;88.84;100579.97;1713652;83;28027;-49